TimeCDT,TemperatureF,Dew PointF,Humidity,Sea Level PressureIn,VisibilityMPH,Wind Direction,Wind SpeedMPH,Gust SpeedMPH,PrecipitationIn,Events,Conditions,WindDirDegrees,DateUTC
12:58 AM,45.0,30.0,56,29.91,10.0,Calm,Calm,-,N/A,,Clear,0,2013-03-25 05:58:00
1:58 AM,44.1,30.0,58,29.93,10.0,Variable,4.6,-,N/A,,Clear,0,2013-03-25 06:58:00
2:58 AM,43.0,28.0,56,29.93,10.0,NW,9.2,-,N/A,,Clear,320,2013-03-25 07:58:00
3:58 AM,41.0,28.0,60,29.95,10.0,Variable,3.5,-,N/A,,Clear,0,2013-03-25 08:58:00
4:58 AM,41.0,27.0,57,29.96,10.0,Variable,3.5,-,N/A,,Clear,0,2013-03-25 09:58:00
5:58 AM,39.0,27.0,62,29.97,10.0,Variable,3.5,-,N/A,,Clear,0,2013-03-25 10:58:00
6:58 AM,37.9,27.0,65,30.01,10.0,Variable,3.5,-,N/A,,Clear,0,2013-03-25 11:58:00
7:58 AM,41.0,26.1,55,30.04,10.0,Variable,6.9,16.1,N/A,,Clear,0,2013-03-25 12:58:00
8:58 AM,43.0,26.1,51,30.07,10.0,NNW,9.2,16.1,N/A,,Clear,330,2013-03-25 13:58:00
9:58 AM,45.0,26.1,48,30.08,10.0,NW,6.9,-,N/A,,Clear,310,2013-03-25 14:58:00
10:58 AM,50.0,28.0,43,30.07,10.0,Variable,5.8,-,N/A,,Clear,0,2013-03-25 15:58:00
11:58 AM,52.0,23.0,32,30.07,10.0,NW,11.5,18.4,N/A,,Clear,310,2013-03-25 16:58:00
12:58 PM,54.0,21.0,28,30.04,10.0,NW,9.2,18.4,N/A,,Clear,320,2013-03-25 17:58:00
1:58 PM,57.0,19.0,23,30.01,10.0,Variable,5.8,26.5,N/A,,Clear,0,2013-03-25 18:58:00
2:58 PM,57.9,21.0,24,30.01,10.0,Variable,6.9,-,N/A,,Clear,0,2013-03-25 19:58:00
3:58 PM,57.9,21.9,25,30.01,10.0,Variable,4.6,18.4,N/A,,Clear,0,2013-03-25 20:58:00
4:58 PM,57.0,19.9,24,30.01,10.0,WNW,9.2,-,N/A,,Clear,300,2013-03-25 21:58:00
5:58 PM,55.0,18.0,23,30.03,10.0,Variable,5.8,17.3,N/A,,Clear,0,2013-03-25 22:58:00
6:58 PM,52.0,19.0,27,30.06,10.0,Calm,Calm,-,N/A,,Clear,0,2013-03-25 23:58:00
7:58 PM,48.9,19.9,32,30.10,10.0,Variable,3.5,-,N/A,,Clear,0,2013-03-26 00:58:00
8:58 PM,48.0,19.9,33,30.14,10.0,Variable,5.8,-,N/A,,Clear,0,2013-03-26 01:58:00
9:58 PM,45.0,21.0,39,30.17,10.0,Variable,3.5,-,N/A,,Clear,0,2013-03-26 02:58:00
10:58 PM,44.1,21.9,42,30.20,10.0,Variable,4.6,-,N/A,,Clear,0,2013-03-26 03:58:00
11:58 PM,41.0,23.0,49,30.21,10.0,Variable,4.6,-,N/A,,Clear,0,2013-03-26 04:58:00